Date,TemperatureHighF,TemperatureAvgF,TemperatureLowF,DewpointHighF,DewpointAvgF,DewpointLowF,HumidityHigh,HumidityAvg,HumidityLow,PressureMaxIn,PressureMinIn,WindSpeedMaxMPH,WindSpeedAvgMPH,GustSpeedMaxMPH,PrecipitationSumIn
2013-8-1,81.2,72.5,67.6,73.0,69.6,66.0,97,91,74,30.02,29.81,2,0,9,0.32
2013-8-2,86.3,75.7,64.8,68.0,66.1,63.0,96,74,51,29.97,29.85,4,0,10,0.00
2013-8-3,81.1,71.9,66.2,70.0,66.6,65.0,96,84,62,29.97,29.92,3,0,6,0.04
2013-8-4,81.4,71.4,61.8,66.0,60.8,56.0,96,72,46,30.04,29.91,4,0,12,0.01
2013-8-5,80.6,68.9,56.7,60.0,56.8,54.0,92,68,41,30.11,30.01,2,0,8,0.00
2013-8-6,72.1,69.2,65.9,68.0,65.6,60.0,93,88,80,30.08,30.00,3,0,8,0.06
2013-8-7,83.6,75.0,68.8,74.0,70.2,66.0,95,85,71,30.07,29.99,4,0,10,0.01
2013-8-8,85.2,78.0,73.7,76.0,73.4,71.0,93,85,72,30.03,29.97,3,0,11,0.08
2013-8-9,89.7,82.2,75.5,78.0,74.7,72.0,93,79,62,29.97,29.85,10,1,14,0.00
2013-8-10,85.6,77.3,69.5,72.0,67.4,61.0,90,73,47,30.08,29.94,1,0,7,0.01
2013-8-11,84.0,76.4,69.9,72.0,68.7,66.0,92,78,56,30.11,30.01,4,0,8,0.00
2013-8-12,89.4,78.9,68.9,73.0,69.4,66.0,97,75,47,30.02,29.91,4,0,9,0.00
2013-8-13,86.0,77.2,69.6,74.0,71.2,68.0,95,82,60,29.90,29.73,4,0,10,0.49
2013-8-14,74.6,66.5,57.7,68.0,54.5,50.0,94,66,50,30.10,29.82,7,1,12,0.01
2013-8-15,78.9,65.6,53.7,56.0,53.2,50.0,94,68,39,30.19,30.09,5,0,5,0.00
2013-8-16,78.9,67.2,54.7,61.0,56.3,53.0,97,71,46,30.20,30.13,4,0,7,0.00
2013-8-17,80.2,69.1,56.2,63.0,58.3,55.0,97,71,45,30.27,30.20,4,0,8,0.00
2013-8-18,71.8,67.6,63.3,66.0,63.5,62.0,95,87,70,30.23,30.17,2,0,5,0.14
2013-8-19,73.7,67.6,60.7,68.0,64.0,60.0,97,88,80,30.18,30.08,3,0,8,0.00
2013-8-20,87.4,75.6,63.0,71.0,67.8,62.0,98,79,52,30.17,30.09,3,0,8,0.00
2013-8-21,87.6,77.3,68.3,75.0,71.2,67.0,97,83,61,30.19,30.07,5,0,9,0.01
2013-8-22,88.7,78.9,70.6,71.0,69.6,68.0,96,75,53,30.09,29.93,3,0,10,0.02
2013-8-23,76.0,70.2,60.3,71.0,66.0,59.0,95,86,71,30.12,29.93,2,0,6,0.12
2013-8-24,82.3,69.8,58.8,65.0,60.4,58.0,97,75,48,30.34,30.12,3,0,10,0.01
2013-8-25,82.1,70.4,60.0,65.0,60.3,56.0,97,73,46,30.41,30.27,6,0,10,0.00
2013-8-26,87.7,74.1,61.0,67.0,62.4,57.0,87,69,45,30.30,30.02,6,0,11,0.00
2013-8-27,90.1,79.7,70.1,74.0,69.8,65.0,85,72,54,30.00,29.88,4,0,10,0.00
2013-8-28,78.3,74.6,72.6,74.0,71.6,68.0,95,90,78,29.92,29.82,1,0,5,0.20
2013-8-29,84.6,76.2,71.3,73.0,70.6,69.0,96,83,63,30.02,29.83,3,0,9,0.00
2013-8-30,85.9,76.8,69.3,72.0,69.9,67.0,94,80,59,30.04,29.89,8,1,10,0.00
2013-8-31,88.2,78.9,70.1,75.0,71.3,67.0,92,78,63,29.91,29.80,4,1,11,0.00